createdAt,value
2016-05-24T00:00:01.151Z,9.47
2016-05-24T00:01:01.123Z,9.43
2016-05-24T00:02:01.093Z,9.4
2016-05-24T00:03:01.066Z,9.48
2016-05-24T00:04:01.021Z,9.46
2016-05-24T00:05:00.977Z,9.42
2016-05-24T00:06:00.948Z,9.43
2016-05-24T00:07:00.904Z,9.42
2016-05-24T00:08:00.875Z,9.46
2016-05-24T00:09:00.862Z,9.42
2016-05-24T00:10:00.819Z,9.47
2016-05-24T00:11:00.775Z,9.48
2016-05-24T00:12:00.745Z,9.42
2016-05-24T00:13:00.733Z,9.42
2016-05-24T00:14:00.689Z,9.4
2016-05-24T00:15:00.644Z,9.38
2016-05-24T00:16:00.600Z,9.5
2016-05-24T00:17:00.572Z,9.43
2016-05-24T00:18:00.528Z,9.42
2016-05-24T00:19:00.671Z,9.43
2016-05-24T00:20:00.471Z,9.42
2016-05-24T00:21:00.427Z,9.5
2016-05-24T00:22:00.398Z,9.48
2016-05-24T00:23:00.369Z,9.42
2016-05-24T00:24:00.185Z,9.48
2016-05-24T00:25:00.499Z,9.46
2016-05-24T00:26:00.252Z,9.48
2016-05-24T00:27:00.239Z,9.46
2016-05-24T00:28:00.196Z,9.48
2016-05-24T00:29:00.151Z,9.42
2016-05-24T00:30:00.123Z,9.43
2016-05-24T00:31:00.093Z,9.42
2016-05-24T00:32:00.082Z,9.51
2016-05-24T00:33:00.021Z,9.5
2016-05-24T00:33:59.821Z,9.46
2016-05-24T00:34:59.948Z,9.48
2016-05-24T00:35:59.904Z,9.46
2016-05-24T00:36:59.875Z,9.47
2016-05-24T00:37:59.831Z,9.36
2016-05-24T00:38:59.818Z,9.46
2016-05-24T00:39:59.775Z,9.42
2016-05-24T00:40:59.746Z,9.51
2016-05-24T00:41:59.701Z,9.5
2016-05-24T00:42:59.673Z,9.4
2016-05-24T00:43:59.644Z,9.5
2016-05-24T00:44:59.459Z,9.4
2016-05-24T00:45:59.400Z,9.47
2016-05-24T00:46:59.528Z,9.46
2016-05-24T00:47:59.499Z,9.43
2016-05-24T00:48:59.470Z,9.4
2016-05-24T00:49:59.427Z,9.46
2016-05-24T00:50:59.398Z,9.43
2016-05-24T00:51:59.353Z,9.46
2016-05-24T00:52:59.325Z,9.47
2016-05-24T00:53:59.296Z,9.43
2016-05-24T00:54:59.252Z,9.42
2016-05-24T00:55:59.239Z,9.46
2016-05-24T00:56:59.180Z,9.4
2016-05-24T00:57:59.166Z,9.46
2016-05-24T00:58:59.122Z,9.36
2016-05-24T00:59:59.109Z,9.43
2016-05-24T01:00:59.060Z,9.4
2016-05-24T01:01:58.904Z,9.47
2016-05-24T01:02:59.060Z,9.47
2016-05-24T01:03:59.045Z,9.43
2016-05-24T01:04:59.028Z,9.46
2016-05-24T01:05:59.021Z,9.39
2016-05-24T01:06:59.003Z,9.47
2016-05-24T01:07:58.983Z,9.4
2016-05-24T01:08:58.950Z,9.46
2016-05-24T01:09:58.932Z,9.4
2016-05-24T01:10:58.895Z,9.4
2016-05-24T01:11:58.870Z,9.5
2016-05-24T01:12:58.830Z,9.4
2016-05-24T01:13:58.805Z,9.46
2016-05-24T01:14:58.781Z,9.46
2016-05-24T01:15:58.740Z,9.43
2016-05-24T01:16:58.712Z,9.43
2016-05-24T01:17:58.684Z,9.4
2016-05-24T01:18:58.641Z,9.38
2016-05-24T01:19:58.457Z,9.47
2016-05-24T01:20:58.570Z,9.43
2016-05-24T01:21:58.543Z,9.46
2016-05-24T01:22:58.514Z,9.38
2016-05-24T01:23:58.471Z,9.4
2016-05-24T01:24:58.442Z,9.46
2016-05-24T01:25:58.399Z,9.46
2016-05-24T01:26:58.370Z,9.42
2016-05-24T01:27:58.186Z,9.42
2016-05-24T01:28:58.297Z,9.42
2016-05-24T01:29:58.458Z,9.46
2016-05-24T01:30:58.288Z,9.4
2016-05-24T01:31:58.042Z,9.4
2016-05-24T01:32:58.170Z,9.47
2016-05-24T01:33:58.125Z,9.47
2016-05-24T01:34:58.096Z,9.42
2016-05-24T01:35:58.067Z,9.54
2016-05-24T01:36:57.866Z,9.54
2016-05-24T01:37:57.995Z,9.5
2016-05-24T01:38:57.967Z,9.51
2016-05-24T01:39:57.922Z,9.46
2016-05-24T01:40:57.878Z,9.56
2016-05-24T01:41:57.849Z,9.48
2016-05-24T01:42:57.836Z,9.53
2016-05-24T01:43:57.823Z,9.53
2016-05-24T01:44:57.749Z,9.48
2016-05-24T01:45:57.719Z,9.53
2016-05-24T01:46:57.691Z,9.54
2016-05-24T01:47:57.646Z,9.47
2016-05-24T01:48:57.602Z,9.54
2016-05-24T01:49:57.574Z,9.56
2016-05-24T01:50:57.562Z,9.48
2016-05-24T01:51:57.517Z,9.57
2016-05-24T01:52:57.504Z,9.54
2016-05-24T01:53:57.444Z,9.54
2016-05-24T01:54:57.400Z,9.53
2016-05-24T01:55:57.371Z,9.53
2016-05-24T01:56:57.343Z,9.48
2016-05-24T01:57:57.298Z,9.5
2016-05-24T01:58:57.270Z,9.57
2016-05-24T01:59:57.086Z,9.56
2016-05-24T02:00:57.198Z,9.53
2016-05-24T02:01:57.169Z,9.56
2016-05-24T02:02:57.140Z,9.54
2016-05-24T02:03:57.096Z,9.54
2016-05-24T02:04:57.052Z,9.56
2016-05-24T02:05:57.022Z,9.51
2016-05-24T02:06:56.995Z,9.56
2016-05-24T02:07:56.795Z,9.57
2016-05-24T02:08:56.922Z,9.53
2016-05-24T02:09:56.893Z,9.51
2016-05-24T02:10:56.849Z,9.53
2016-05-24T02:11:56.821Z,9.6
2016-05-24T02:12:56.636Z,9.54
2016-05-24T02:13:56.749Z,9.53
2016-05-24T02:14:56.891Z,9.54
2016-05-24T02:15:56.675Z,9.54
2016-05-24T02:16:56.646Z,9.56
2016-05-24T02:17:56.446Z,9.51
2016-05-24T02:18:56.590Z,9.53
2016-05-24T02:19:56.529Z,9.5
2016-05-24T02:20:56.518Z,9.51
2016-05-24T02:21:56.473Z,9.57
2016-05-24T02:22:56.443Z,9.57
2016-05-24T02:23:56.306Z,9.56
2016-05-24T02:24:56.371Z,9.53
2016-05-24T02:25:56.343Z,9.51
2016-05-24T02:26:56.298Z,9.56
2016-05-24T02:27:56.254Z,9.53
2016-05-24T02:28:56.226Z,9.56
2016-05-24T02:29:56.198Z,9.57
2016-05-24T02:30:56.153Z,9.54
2016-05-24T02:31:55.984Z,9.54
2016-05-24T02:32:56.095Z,9.56
2016-05-24T02:33:56.052Z,9.56
2016-05-24T02:34:56.022Z,9.57
2016-05-24T02:35:55.995Z,9.54
2016-05-24T02:36:55.810Z,9.57
2016-05-24T02:37:55.922Z,9.54
2016-05-24T02:38:55.877Z,9.54
2016-05-24T02:39:55.849Z,9.57
2016-05-24T02:40:55.821Z,9.53
2016-05-24T02:41:55.792Z,9.68
2016-05-24T02:42:55.748Z,9.58
2016-05-24T02:43:55.735Z,9.54
2016-05-24T02:44:55.940Z,9.57
2016-05-24T02:45:55.646Z,9.66
2016-05-24T02:46:55.665Z,9.56
2016-05-24T02:47:55.574Z,9.66
2016-05-24T02:48:55.389Z,9.61
2016-05-24T02:49:55.501Z,9.71
2016-05-24T02:50:55.316Z,9.64
2016-05-24T02:51:55.521Z,9.66
2016-05-24T02:52:55.462Z,9.61
2016-05-24T02:53:55.418Z,9.65
2016-05-24T02:54:55.327Z,9.65
2016-05-24T02:55:55.157Z,9.64
2016-05-24T02:56:55.270Z,9.64
2016-05-24T02:57:55.226Z,9.65
2016-05-24T02:58:55.088Z,9.61
2016-05-24T02:59:55.356Z,9.66
2016-05-24T03:00:55.125Z,9.64
2016-05-24T03:01:55.095Z,9.65
2016-05-24T03:02:55.083Z,9.66
2016-05-24T03:03:55.023Z,9.66
2016-05-24T03:04:54.995Z,9.65
2016-05-24T03:05:54.950Z,9.64
2016-05-24T03:06:54.937Z,9.65
2016-05-24T03:07:54.894Z,9.66
2016-05-24T03:08:54.849Z,9.65
2016-05-24T03:09:54.836Z,9.65
2016-05-24T03:10:54.792Z,9.68
2016-05-24T03:11:54.747Z,9.64
2016-05-24T03:12:54.735Z,9.61
2016-05-24T03:13:54.690Z,9.65
2016-05-24T03:14:54.662Z,9.71
2016-05-24T03:15:54.633Z,9.69
2016-05-24T03:16:54.574Z,9.65
2016-05-24T03:17:54.546Z,9.66
2016-05-24T03:18:54.516Z,9.65
2016-05-24T03:19:54.471Z,9.71
2016-05-24T03:20:54.428Z,9.69
2016-05-24T03:21:54.399Z,9.65
2016-05-24T03:22:54.480Z,9.69
2016-05-24T03:23:54.343Z,9.72
2016-05-24T03:24:54.298Z,9.71
2016-05-24T03:25:54.270Z,9.71
2016-05-24T03:26:54.241Z,9.76
2016-05-24T03:27:54.197Z,9.74
2016-05-24T03:28:54.168Z,9.83
2016-05-24T03:29:54.124Z,9.76
2016-05-24T03:30:54.095Z,9.71
2016-05-24T03:31:54.067Z,9.78
2016-05-24T03:32:53.992Z,9.79
2016-05-24T03:33:53.838Z,9.81
2016-05-24T03:34:53.841Z,9.78
2016-05-24T03:35:53.937Z,9.79
2016-05-24T03:36:53.877Z,9.86
2016-05-24T03:37:53.865Z,9.79
2016-05-24T03:38:53.805Z,9.81
2016-05-24T03:39:53.792Z,9.79
2016-05-24T03:40:53.747Z,9.87
2016-05-24T03:41:53.719Z,9.83
2016-05-24T03:42:53.830Z,9.83
2016-05-24T03:43:53.647Z,9.87
2016-05-24T03:44:54.164Z,9.83
2016-05-24T03:45:53.605Z,9.89
2016-05-24T03:46:53.544Z,9.91
2016-05-24T03:47:53.501Z,9.83
2016-05-24T03:48:53.471Z,9.9
2016-05-24T03:49:53.288Z,9.86
2016-05-24T03:50:53.415Z,9.87
2016-05-24T03:51:53.371Z,9.9
2016-05-24T03:52:53.357Z,9.91
2016-05-24T03:53:53.299Z,9.89
2016-05-24T03:54:53.285Z,9.86
2016-05-24T03:55:53.241Z,9.89
2016-05-24T03:56:53.040Z,9.91
2016-05-24T03:57:53.012Z,9.94
2016-05-24T03:58:53.124Z,9.91
2016-05-24T03:59:53.361Z,9.94
2016-05-24T04:00:53.067Z,9.86
2016-05-24T04:01:53.023Z,9.91
2016-05-24T04:02:53.103Z,9.89
2016-05-24T04:03:52.950Z,9.89
2016-05-24T04:04:52.922Z,9.94
2016-05-24T04:05:52.893Z,9.97
2016-05-24T04:06:52.864Z,9.94
2016-05-24T04:07:52.820Z,9.99
2016-05-24T04:08:52.791Z,9.87
2016-05-24T04:09:52.747Z,9.94
2016-05-24T04:10:52.719Z,9.89
2016-05-24T04:11:52.675Z,9.87
2016-05-24T04:12:52.755Z,10.04
2016-05-24T04:13:52.617Z,9.97
2016-05-24T04:14:52.588Z,9.94
2016-05-24T04:15:52.544Z,9.87
2016-05-24T04:16:52.517Z,10.02
2016-05-24T04:17:52.488Z,9.97
2016-05-24T04:18:52.444Z,9.91
2016-05-24T04:19:52.399Z,10.04
2016-05-24T04:20:52.214Z,10.02
2016-05-24T04:21:52.343Z,10.01
2016-05-24T04:22:52.548Z,10.04
2016-05-24T04:23:52.269Z,10.07
2016-05-24T04:24:52.397Z,10.04
2016-05-24T04:25:52.212Z,10.08
2016-05-24T04:26:52.168Z,10.04
2016-05-24T04:27:52.139Z,10.04
2016-05-24T04:28:52.096Z,10.07
2016-05-24T04:29:52.676Z,10.04
2016-05-24T04:30:52.288Z,10.14
2016-05-24T04:31:52.025Z,10.2
2016-05-24T04:32:52.043Z,10.17
2016-05-24T04:33:51.921Z,10.12
2016-05-24T04:34:51.893Z,10.17
2016-05-24T04:35:51.864Z,10.17
2016-05-24T04:36:51.820Z,10.15
2016-05-24T04:37:51.791Z,10.2
2016-05-24T04:38:51.747Z,10.14
2016-05-24T04:39:51.719Z,10.17
2016-05-24T04:40:51.690Z,10.17
2016-05-24T04:41:51.661Z,10.26
2016-05-24T04:42:51.649Z,10.26
2016-05-24T04:43:51.588Z,10.3
2016-05-24T04:44:51.483Z,10.23
2016-05-24T04:45:51.360Z,10.3
2016-05-24T04:46:51.503Z,10.36
2016-05-24T04:47:51.443Z,10.29
2016-05-24T04:48:51.415Z,10.3
2016-05-24T04:49:51.370Z,10.33
2016-05-24T04:50:51.358Z,10.29
2016-05-24T04:51:51.314Z,10.29
2016-05-24T04:52:51.285Z,10.33
2016-05-24T04:53:51.256Z,10.36
2016-05-24T04:54:51.212Z,10.29
2016-05-24T04:55:51.168Z,10.34
2016-05-24T04:56:51.140Z,10.26
2016-05-24T04:57:51.111Z,10.3
2016-05-24T04:58:51.067Z,10.3
2016-05-24T04:59:50.881Z,10.33
2016-05-24T05:00:51.010Z,10.3
2016-05-24T05:01:50.965Z,10.33
2016-05-24T05:02:50.937Z,10.32
2016-05-24T05:03:50.956Z,10.33
2016-05-24T05:04:50.864Z,10.34
2016-05-24T05:05:50.820Z,10.36
2016-05-24T05:06:50.791Z,10.27
2016-05-24T05:07:50.762Z,10.32
2016-05-24T05:08:50.734Z,10.33
2016-05-24T05:09:50.690Z,10.44
2016-05-24T05:10:50.661Z,10.38
2016-05-24T05:11:50.633Z,10.34
2016-05-24T05:12:50.605Z,10.4
2016-05-24T05:13:50.561Z,10.51
2016-05-24T05:14:50.641Z,10.53
2016-05-24T05:15:50.347Z,10.51
2016-05-24T05:16:50.458Z,10.63
2016-05-24T05:17:50.430Z,10.63
2016-05-24T05:18:50.386Z,10.59
2016-05-24T05:19:50.202Z,10.63
2016-05-24T05:20:50.329Z,10.66
2016-05-24T05:21:50.129Z,10.66
2016-05-24T05:22:50.257Z,10.73
2016-05-24T05:23:50.228Z,10.68
2016-05-24T05:24:50.182Z,10.7
2016-05-24T05:25:50.155Z,10.7
2016-05-24T05:26:50.127Z,10.76
2016-05-24T05:27:50.082Z,10.68
2016-05-24T05:28:50.053Z,10.64
2016-05-24T05:29:50.134Z,10.68
2016-05-24T05:30:49.824Z,10.71
2016-05-24T05:31:49.952Z,10.76
2016-05-24T05:32:49.908Z,10.79
2016-05-24T05:33:49.880Z,10.68
2016-05-24T05:34:49.835Z,10.68
2016-05-24T05:35:49.806Z,10.78
2016-05-24T05:36:49.779Z,10.81
2016-05-24T05:37:49.750Z,10.76
2016-05-24T05:38:49.705Z,10.79
2016-05-24T05:39:49.677Z,10.82
2016-05-24T05:40:49.633Z,10.74
2016-05-24T05:41:49.464Z,10.79
2016-05-24T05:42:49.575Z,10.79
2016-05-24T05:43:49.547Z,10.84
2016-05-24T05:44:49.503Z,10.79
2016-05-24T05:45:49.474Z,10.79
2016-05-24T05:46:49.430Z,10.82
2016-05-24T05:47:49.401Z,10.82
2016-05-24T05:48:49.263Z,10.89
2016-05-24T05:49:49.173Z,10.86
2016-05-24T05:50:49.300Z,10.86
2016-05-24T05:51:49.272Z,10.96
2016-05-24T05:52:49.243Z,10.94
2016-05-24T05:53:49.199Z,10.86
2016-05-24T05:54:49.279Z,10.89
2016-05-24T05:55:49.126Z,10.85
2016-05-24T05:56:49.098Z,10.88
2016-05-24T05:57:49.069Z,10.91
2016-05-24T05:58:49.040Z,10.88
2016-05-24T05:59:49.012Z,10.89
2016-05-24T06:00:48.827Z,10.84
2016-05-24T06:01:48.923Z,10.96
2016-05-24T06:02:48.895Z,10.92
2016-05-24T06:03:48.866Z,10.89
2016-05-24T06:04:48.823Z,10.96
2016-05-24T06:05:48.840Z,10.97
2016-05-24T06:06:48.765Z,10.99
2016-05-24T06:07:48.564Z,11
2016-05-24T06:08:48.692Z,11.07
2016-05-24T06:09:48.663Z,11.09
2016-05-24T06:10:49.666Z,11.17
2016-05-24T06:11:48.920Z,11.19
2016-05-24T06:12:49.766Z,11.22
2016-05-24T06:13:51.049Z,11.25
2016-05-24T06:14:49.022Z,11.32
2016-05-24T06:15:48.695Z,11.35
2016-05-24T06:16:52.369Z,11.28
2016-05-24T06:17:48.388Z,11.35
2016-05-24T06:18:48.360Z,11.36
2016-05-24T06:19:48.331Z,11.27
2016-05-24T06:20:48.288Z,11.37
2016-05-24T06:21:48.102Z,11.29
2016-05-24T06:22:48.230Z,11.37
2016-05-24T06:23:48.185Z,11.33
2016-05-24T06:24:48.157Z,11.37
2016-05-24T06:25:48.129Z,11.47
2016-05-24T06:26:47.929Z,11.39
2016-05-24T06:27:48.071Z,11.49
2016-05-24T06:28:48.027Z,11.4
2016-05-24T06:29:47.999Z,11.47
2016-05-24T06:30:47.970Z,11.43
2016-05-24T06:31:47.926Z,11.47
2016-05-24T06:32:47.882Z,11.43
2016-05-24T06:33:47.854Z,11.49
2016-05-24T06:34:47.668Z,11.54
2016-05-24T06:35:47.781Z,11.54
2016-05-24T06:36:47.768Z,11.65
2016-05-24T06:37:47.723Z,11.65
2016-05-24T06:38:47.695Z,11.61
2016-05-24T06:39:47.651Z,11.7
2016-05-24T06:40:47.623Z,11.73
2016-05-24T06:41:47.594Z,11.75
2016-05-24T06:42:47.549Z,11.7
2016-05-24T06:43:47.536Z,11.75
2016-05-24T06:44:47.633Z,11.75
2016-05-24T06:45:47.573Z,11.79
2016-05-24T06:46:47.451Z,11.88
2016-05-24T06:47:47.500Z,11.85
2016-05-24T06:48:47.363Z,11.85
2016-05-24T06:49:47.334Z,11.99
2016-05-24T06:50:47.134Z,11.98
2016-05-24T06:51:47.261Z,11.95
2016-05-24T06:52:47.233Z,12.09
2016-05-24T06:53:47.188Z,12.07
2016-05-24T06:54:47.175Z,12.12
2016-05-24T06:55:47.132Z,12.14
2016-05-24T06:56:47.102Z,12.09
2016-05-24T06:57:47.074Z,12.12
2016-05-24T06:58:47.030Z,12.09
2016-05-24T06:59:47.002Z,12.07
2016-05-24T07:00:47.333Z,12.13
2016-05-24T07:01:46.944Z,12.12
2016-05-24T07:02:46.901Z,12.14
2016-05-24T07:03:46.871Z,12.13
2016-05-24T07:04:46.843Z,12.05
2016-05-24T07:05:46.659Z,12.09
2016-05-24T07:06:46.879Z,12.13
2016-05-24T07:07:46.742Z,12.16
2016-05-24T07:08:46.698Z,12.19
2016-05-24T07:09:46.670Z,12.13
2016-05-24T07:10:46.640Z,12.12
2016-05-24T07:11:46.596Z,12.19
2016-05-24T07:12:46.584Z,12.19
2016-05-24T07:13:46.540Z,12.21
2016-05-24T07:14:46.511Z,12.17
2016-05-24T07:15:46.685Z,12.21
2016-05-24T07:16:46.438Z,12.27
2016-05-24T07:17:46.409Z,12.2
2016-05-24T07:18:46.443Z,12.2
2016-05-24T07:19:46.352Z,12.23
2016-05-24T07:20:46.308Z,12.24
2016-05-24T07:21:46.295Z,12.29
2016-05-24T07:22:46.266Z,12.34
2016-05-24T07:23:46.066Z,12.29
2016-05-24T07:24:46.194Z,12.5
2016-05-24T07:25:46.244Z,12.5
2016-05-24T07:26:45.965Z,12.53
2016-05-24T07:27:46.124Z,12.54
2016-05-24T07:28:46.049Z,12.57
2016-05-24T07:29:45.863Z,12.65
2016-05-24T07:30:46.522Z,12.77
2016-05-24T07:31:45.790Z,12.77
2016-05-24T07:32:45.918Z,12.83
2016-05-24T07:33:45.937Z,12.85
2016-05-24T07:34:45.862Z,12.9
2016-05-24T07:35:45.817Z,12.96
2016-05-24T07:36:45.804Z,13.05
2016-05-24T07:37:45.760Z,13.03
2016-05-24T07:38:46.232Z,13.03
2016-05-24T07:39:45.765Z,13.1
2016-05-24T07:40:45.659Z,13.08
2016-05-24T07:41:45.614Z,13.15
2016-05-24T07:42:45.633Z,13.32
2016-05-24T07:43:45.557Z,13.38
2016-05-24T07:44:45.731Z,13.41
2016-05-24T07:45:45.548Z,13.6
2016-05-24T07:46:45.472Z,13.77
2016-05-24T07:47:45.521Z,13.95
2016-05-24T07:48:45.400Z,14.15
2016-05-24T07:49:45.370Z,14.4
2016-05-24T07:50:45.342Z,14.39
2016-05-24T07:51:45.533Z,14.43
2016-05-24T07:52:45.363Z,14.54
2016-05-24T07:53:45.256Z,14.54
2016-05-24T07:54:45.227Z,14.52
2016-05-24T07:55:45.277Z,14.57
2016-05-24T07:56:45.155Z,14.45
2016-05-24T07:57:45.127Z,14.43
2016-05-24T07:58:45.097Z,14.35
2016-05-24T07:59:45.069Z,14.36
2016-05-24T08:00:44.868Z,14.29
2016-05-24T08:01:44.996Z,14.32
2016-05-24T08:02:45.030Z,14.32
2016-05-24T08:03:44.940Z,14.33
2016-05-24T08:04:44.896Z,14.35
2016-05-24T08:05:44.929Z,14.27
2016-05-24T08:06:44.854Z,14.27
2016-05-24T08:07:44.809Z,14.2
2016-05-24T08:08:44.781Z,14.24
2016-05-24T08:09:44.752Z,14.17
2016-05-24T08:10:44.755Z,14.14
2016-05-24T08:11:44.679Z,14.04
2016-05-24T08:12:44.667Z,14.14
2016-05-24T08:13:44.685Z,14.17
2016-05-24T08:14:44.703Z,14.12
2016-05-24T08:15:44.847Z,14.17
2016-05-24T08:16:44.521Z,14.06
2016-05-24T08:17:44.493Z,14
2016-05-24T08:18:58.636Z,13.85
2016-05-24T08:19:44.450Z,13.78
2016-05-24T08:20:44.391Z,13.79
2016-05-24T08:21:44.364Z,13.79
2016-05-24T08:22:44.381Z,13.69
2016-05-24T08:23:44.306Z,13.64
2016-05-24T08:24:44.278Z,13.7
2016-05-24T08:25:44.249Z,13.59
2016-05-24T08:26:44.204Z,13.66
2016-05-24T08:27:44.191Z,13.64
2016-05-24T08:28:44.163Z,13.48
2016-05-24T08:29:44.135Z,13.52
2016-05-24T08:30:44.418Z,13.57
2016-05-24T08:31:43.999Z,13.52
2016-05-24T08:32:44.049Z,13.54
2016-05-24T08:33:43.988Z,13.52
2016-05-24T08:34:43.913Z,13.41
2016-05-24T08:35:43.932Z,13.42
2016-05-24T08:36:43.904Z,13.39
2016-05-24T08:37:43.859Z,13.45
2016-05-24T08:38:43.862Z,13.32
2016-05-24T08:39:43.817Z,13.33
2016-05-24T08:40:43.835Z,13.36
2016-05-24T08:41:43.745Z,13.29
2016-05-24T08:42:43.701Z,13.39
2016-05-24T08:43:43.673Z,13.39
2016-05-24T08:44:43.534Z,13.36
2016-05-24T08:45:43.849Z,13.36
2016-05-24T08:46:43.586Z,13.29
2016-05-24T08:47:43.558Z,13.3
2016-05-24T08:48:43.622Z,13.29
2016-05-24T08:49:43.484Z,13.11
2016-05-24T08:50:43.457Z,13.2
2016-05-24T08:51:43.272Z,13.17
2016-05-24T08:52:43.289Z,13.25
2016-05-24T08:53:43.355Z,13.14
2016-05-24T08:54:43.327Z,13.08
2016-05-24T08:55:43.329Z,13.07
2016-05-24T08:56:43.270Z,13.11
2016-05-24T08:57:43.319Z,13.07
2016-05-24T08:58:43.244Z,13.04
2016-05-24T08:59:43.230Z,13.07
2016-05-24T09:00:45.843Z,13.08
2016-05-24T09:01:43.111Z,13.1
2016-05-24T09:02:43.082Z,13.01
2016-05-24T09:03:43.039Z,13.04
2016-05-24T09:04:43.010Z,13.03
2016-05-24T09:05:42.981Z,13.11
2016-05-24T09:06:42.952Z,13.01
2016-05-24T09:07:42.908Z,12.97
2016-05-24T09:08:42.896Z,13.04
2016-05-24T09:09:43.085Z,12.93
2016-05-24T09:10:43.385Z,13.04
2016-05-24T09:11:42.794Z,12.97
2016-05-24T09:12:42.751Z,13
2016-05-24T09:13:42.581Z,13.1
2016-05-24T09:14:42.693Z,13.07
2016-05-24T09:15:45.524Z,13.05
2016-05-24T09:16:42.620Z,13.03
2016-05-24T09:17:42.592Z,13.05
2016-05-24T09:18:42.672Z,13.04
2016-05-24T09:19:42.519Z,13.08
2016-05-24T09:20:42.490Z,13.12
2016-05-24T09:21:42.462Z,13.1
2016-05-24T09:22:42.433Z,13.08
2016-05-24T09:23:42.451Z,13.14
2016-05-24T09:24:42.361Z,13.08
2016-05-24T09:25:42.332Z,13.08
2016-05-24T09:26:42.303Z,13.11
2016-05-24T09:27:42.274Z,13.11
2016-05-24T09:28:42.247Z,13.17
2016-05-24T09:29:42.202Z,13.2
2016-05-24T09:30:42.392Z,13.11
2016-05-24T09:31:42.145Z,13.2
2016-05-24T09:32:42.335Z,13.19
2016-05-24T09:34:42.075Z,13.11
2016-05-24T09:35:42.015Z,13.2
2016-05-24T09:36:42.017Z,13.26
2016-05-24T09:37:41.958Z,13.19
2016-05-24T09:38:42.116Z,13.15
2016-05-24T09:39:41.885Z,13.2
2016-05-24T09:40:41.857Z,13.19
2016-05-24T09:41:41.828Z,13.2
2016-05-24T09:42:42.065Z,13.17
2016-05-24T09:43:41.818Z,13.17
2016-05-24T09:44:41.726Z,13.28
2016-05-24T09:45:44.214Z,13.28
2016-05-24T09:46:41.622Z,13.29
2016-05-24T09:47:41.735Z,13.28
2016-05-24T09:48:41.598Z,13.3
2016-05-24T09:49:41.567Z,13.28
2016-05-24T09:50:41.540Z,13.29
2016-05-24T09:51:41.511Z,13.29
2016-05-24T09:52:41.795Z,13.28
2016-05-24T09:53:41.564Z,13.32
2016-05-24T09:54:41.409Z,13.25
2016-05-24T09:55:41.522Z,13.33
2016-05-24T09:56:41.353Z,13.32
2016-05-24T09:57:41.324Z,13.3
2016-05-24T09:58:41.280Z,13.32
2016-05-24T10:00:41.911Z,13.39
2016-05-24T10:01:41.225Z,13.26
2016-05-24T10:02:41.150Z,13.32
2016-05-24T10:04:41.171Z,13.41
2016-05-24T10:05:41.095Z,13.3
2016-05-24T10:06:41.049Z,13.44
2016-05-24T10:07:41.043Z,13.39
2016-05-24T10:08:41.020Z,13.41
2016-05-24T10:10:41.008Z,13.55
2016-05-24T10:11:40.976Z,13.59
2016-05-24T10:12:40.955Z,13.55
2016-05-24T10:13:40.951Z,13.69
2016-05-24T10:14:41.164Z,13.77
2016-05-24T10:15:40.895Z,13.85
2016-05-24T10:16:40.855Z,13.96
2016-05-24T10:17:40.908Z,14.02
2016-05-24T10:18:40.803Z,14.12
2016-05-24T10:19:40.824Z,14.18
2016-05-24T10:20:40.892Z,14.22
2016-05-24T10:21:40.725Z,14.32
2016-05-24T10:22:40.697Z,14.39
2016-05-24T10:23:40.654Z,14.5
2016-05-24T10:24:40.626Z,14.51
2016-05-24T10:25:40.599Z,14.51
2016-05-24T10:26:41.353Z,14.69
2016-05-24T10:27:40.372Z,14.8
2016-05-24T10:28:40.500Z,14.91
2016-05-24T10:29:40.518Z,14.88
2016-05-24T10:30:40.490Z,14.94
2016-05-24T10:31:40.524Z,15.06
2016-05-24T10:32:40.418Z,15.02
2016-05-24T10:33:40.342Z,15.02
2016-05-24T10:34:40.173Z,15.14
2016-05-24T10:35:40.128Z,15.17
2016-05-24T10:36:40.256Z,15.35
2016-05-24T10:37:40.243Z,15.34
2016-05-24T10:38:40.184Z,15.43
2016-05-24T10:39:40.170Z,15.47
2016-05-24T10:40:40.126Z,15.53
2016-05-24T10:41:40.098Z,15.59
2016-05-24T10:42:40.084Z,15.68
2016-05-24T10:43:40.103Z,15.62
2016-05-24T10:44:40.012Z,15.71
2016-05-24T10:45:39.827Z,15.8
2016-05-24T10:46:39.955Z,15.69
2016-05-24T10:47:39.927Z,15.76
2016-05-24T10:48:39.898Z,15.9
2016-05-24T10:49:39.916Z,15.94
2016-05-24T10:50:39.825Z,16.07
2016-05-24T10:51:40.594Z,16.09
2016-05-24T10:52:40.596Z,16.23
2016-05-24T10:53:40.552Z,16.17
2016-05-24T10:54:40.507Z,16.23
2016-05-24T10:55:39.698Z,16.28
2016-05-24T10:56:40.451Z,16.33
2016-05-24T10:57:40.266Z,16.46
2016-05-24T10:58:40.393Z,16.52
2016-05-24T10:59:40.365Z,16.52
2016-05-24T11:00:39.711Z,16.67
2016-05-24T11:01:40.324Z,16.7
2016-05-24T11:02:40.279Z,16.67
2016-05-24T11:03:40.251Z,16.76
2016-05-24T11:04:40.223Z,16.79
2016-05-24T11:05:40.037Z,16.79
2016-05-24T11:06:40.149Z,16.85
2016-05-24T11:07:40.231Z,16.96
2016-05-24T11:08:40.108Z,16.96
2016-05-24T11:09:40.079Z,16.94
2016-05-24T11:10:40.051Z,16.91
2016-05-24T11:11:40.053Z,16.83
2016-05-24T11:12:39.994Z,16.93
2016-05-24T11:13:40.042Z,16.83
2016-05-24T11:14:39.937Z,16.88
2016-05-24T11:15:39.267Z,16.81
2016-05-24T11:16:39.863Z,16.7
2016-05-24T11:17:39.883Z,16.7
2016-05-24T11:18:39.806Z,16.61
2016-05-24T11:19:39.778Z,16.56
2016-05-24T11:20:39.828Z,16.58
2016-05-24T11:21:39.080Z,16.58
2016-05-24T11:22:39.083Z,16.66
2016-05-24T11:23:39.680Z,16.66
2016-05-24T11:24:38.994Z,16.75
2016-05-24T11:25:39.450Z,16.75
2016-05-24T11:26:39.578Z,16.79
2016-05-24T11:27:39.752Z,16.79
2016-05-24T11:28:39.505Z,16.85
2016-05-24T11:29:39.493Z,16.91
2016-05-24T11:30:40.183Z,16.91
2016-05-24T11:31:39.560Z,16.96
2016-05-24T11:32:38.829Z,16.98
2016-05-24T11:33:39.379Z,16.85
2016-05-24T11:34:39.350Z,16.93
2016-05-24T11:35:39.321Z,17.06
2016-05-24T11:36:39.276Z,17.06
2016-05-24T11:37:38.623Z,17.14
2016-05-24T11:38:39.235Z,17.25
2016-05-24T11:39:39.317Z,17.3
2016-05-24T11:40:39.178Z,17.33
2016-05-24T11:41:39.150Z,17.49
2016-05-24T11:42:39.121Z,17.44
2016-05-24T11:43:39.092Z,17.48
2016-05-24T11:44:39.048Z,17.44
2016-05-24T11:45:39.488Z,17.59
2016-05-24T11:46:39.006Z,17.4
2016-05-24T11:47:38.978Z,17.43
2016-05-24T11:48:38.950Z,17.52
2016-05-24T11:49:38.906Z,17.44
2016-05-24T11:50:38.893Z,17.52
2016-05-24T11:51:38.848Z,17.43
2016-05-24T11:52:38.820Z,17.52
2016-05-24T11:53:38.636Z,17.48
2016-05-24T11:54:38.763Z,17.46
2016-05-24T11:55:38.735Z,17.38
2016-05-24T11:56:38.158Z,17.46
2016-05-24T11:57:38.677Z,17.31
2016-05-24T11:58:38.664Z,17.41
2016-05-24T11:59:38.635Z,17.34
2016-05-24T12:00:38.451Z,17.36
2016-05-24T12:01:38.579Z,17.37
2016-05-24T12:02:38.190Z,17.4
2016-05-24T12:03:37.881Z,17.36
2016-05-24T12:04:38.493Z,17.31
2016-05-24T12:05:38.558Z,17.25
2016-05-24T12:06:37.639Z,17.23
2016-05-24T12:07:38.267Z,17.21
2016-05-24T12:08:38.238Z,17.18
2016-05-24T12:09:38.413Z,17.07
2016-05-24T12:10:38.321Z,17.07
2016-05-24T12:11:38.309Z,16.98
2016-05-24T12:12:38.139Z,16.94
2016-05-24T12:13:38.189Z,16.91
2016-05-24T12:14:37.598Z,16.96
2016-05-24T12:15:38.178Z,16.91
2016-05-24T12:16:38.166Z,16.85
2016-05-24T12:17:38.059Z,16.81
2016-05-24T12:18:37.468Z,16.83
2016-05-24T12:19:37.424Z,16.81
2016-05-24T12:20:38.222Z,16.79
2016-05-24T12:21:37.492Z,16.81
2016-05-24T12:22:37.978Z,16.83
2016-05-24T12:23:38.013Z,16.76
2016-05-24T12:24:37.280Z,16.86
2016-05-24T12:25:38.066Z,16.79
2016-05-24T12:26:37.224Z,16.86
2016-05-24T12:27:37.913Z,16.81
2016-05-24T12:28:37.885Z,16.82
2016-05-24T12:29:37.857Z,16.81
2016-05-24T12:30:38.000Z,16.83
2016-05-24T12:31:37.707Z,16.96
2016-05-24T12:32:37.771Z,16.86
2016-05-24T12:33:37.024Z,16.91
2016-05-24T12:34:36.996Z,17
2016-05-24T12:35:36.968Z,17.03
2016-05-24T12:36:37.563Z,17.11
2016-05-24T12:37:37.535Z,17.08
2016-05-24T12:38:37.365Z,17.18
2016-05-24T12:39:37.478Z,17.19
2016-05-24T12:40:37.434Z,17.22
2016-05-24T12:41:37.436Z,17.23
2016-05-24T12:42:37.376Z,17.21
2016-05-24T12:43:37.378Z,17.23
2016-05-24T12:44:36.691Z,17.18
2016-05-24T12:45:37.307Z,17.21
2016-05-24T12:46:36.635Z,17.19
2016-05-24T12:47:36.450Z,17.15
2016-05-24T12:48:37.205Z,17.15
2016-05-24T12:49:37.192Z,17.11
2016-05-24T12:50:37.161Z,17.11
2016-05-24T12:51:37.133Z,17.06
2016-05-24T12:52:37.104Z,17.07
2016-05-24T12:53:36.919Z,17.07
2016-05-24T12:54:37.047Z,17.11
2016-05-24T12:55:37.003Z,17.15
2016-05-24T12:56:36.349Z,17.08
2016-05-24T12:57:36.945Z,17.04
2016-05-24T12:58:36.947Z,17.14
2016-05-24T12:59:36.888Z,17
2016-05-24T13:00:37.297Z,17.07
2016-05-24T13:01:36.862Z,17.08
2016-05-24T13:02:36.646Z,17.03
2016-05-24T13:03:36.149Z,17.01
2016-05-24T13:04:36.745Z,17.08
2016-05-24T13:05:36.701Z,17.06
2016-05-24T13:06:36.532Z,17.11